Benson, Minnesota
Current Conditions -  °F | °C
As of 7:54 PM on Sunday 21 Dec 2014 (Local Time) from KBBB Reporting Station
Haze Haze  
Wind Chill: 28°   Ceiling: 200
Heat Index: 36°   Visibility: 1.2mi
Dew Point: 36°   Wind: 10mph
Humidity: 100%   Direction: 180°S
Pressure: 29.61"   Gusts: NA
Location:  45.31°N, 95.6°W
Report Text: KBBB 220154Z AUTO 18009KT 1 1/4SM BR OVC002 02/02 A2961 RMK AO2
Loading
Personal Weather Stations






























Interactive Weather Map New forecast layout! Learn more

10-Day Weather Forecast

Advertisements
Track Severe Weather on mobile